Decoded Metar for LYKV (KRALJEVO/LADEVCI in SERBIA) (IATA:N/A) | Meteo·Mobile Aviation Weather
aviador You're here:

LYKV Decoded Metar

KRALJEVO/LADEVCI in SERBIA
Report Time2019-11-16 00:30:00
UTC Time2019-11-16 00:55:40
Flight Rules vfr VFR
Wind130° at 09 kt
W.Decomp.*RWY 14: 8.8 kt HW 2 kt LCW
Visibility9999 m
Phenomena:N/A
Clouds:N/A
Expected CloudBase > 2,400 ft AGL from Temp-Dew spread
CeilingNone
Temp15°C (ISA +1)
Dew Point09°C (68% RH)
AAT11.6°C
QNH1016 hPa
Density Alt912 ft
Elevation694 ft
Report Wrong Elevation
Raw Report
METAR LYKV 160030Z 13009KT CAVOK 15/09 Q1016 NOSIG=

Extra information for LYKV:More info

Metar Taf Metar & Taf Last 4 Metars F.Rules Stats Wind Profile Meteogram Temp Stats Airport Information Weather charts Add Link Nearby VenuesMetar ALERT Operation Metar Decoded Social comments